Time;durP1;ratioP1;P1;durP2;ratioP2;P2;SDS_P1;SDS_P2;PMS_P1;PMS_P2;Temp;Humidity;BMP_temperature;BMP_pressure;BME280_temperature;BME280_humidity;BME280_pressure;Samples;Min_cycle;Max_cycle;Signal;HPM_P1;HPM_P2
2022/12/02 00:01:04;;;;;;;0.10;0.10;;;;;;;10.04;68.72;102012.31;7360238;19;20097;-57
2022/12/02 00:03:34;;;;;;;0.00;0.00;;;;;;;10.03;68.83;102008.81;7361041;19;20006;-56
2022/12/02 00:05:59;;;;;;;0.00;0.00;;;;;;;9.97;68.66;102003.59;7358520;19;20023;-56
2022/12/02 00:08:28;;;;;;;0.10;0.10;;;;;;;10.07;68.57;102013.16;7363119;19;20482;-56
2022/12/02 00:10:56;;;;;;;0.00;0.00;;;;;;;10.07;68.78;102013.16;7363790;19;20052;-56
2022/12/02 00:13:26;;;;;;;;;;;;;;;10.11;68.53;102008.81;7364950;19;20006;-56
2022/12/02 00:16:00;;;;;;;0.05;0.05;;;;;;;10.12;68.66;102010.56;7362199;19;19947;-56
2022/12/02 00:18:25;;;;;;;0.00;0.00;;;;;;;10.10;68.96;102001.88;7363171;19;20014;-56
2022/12/02 00:20:51;;;;;;;0.00;0.00;;;;;;;10.11;68.85;101998.38;7358940;19;20017;-57
2022/12/02 00:23:18;;;;;;;0.00;0.00;;;;;;;10.13;68.78;101996.63;7361940;19;20375;-55
2022/12/02 00:25:46;;;;;;;0.00;0.00;;;;;;;10.10;69.17;101992.28;7357485;19;20014;-57
2022/12/02 00:28:12;;;;;;;0.10;0.10;;;;;;;10.16;69.16;101999.25;7361458;19;20030;-57
2022/12/02 00:30:39;;;;;;;0.10;0.10;;;;;;;10.18;69.05;102004.47;7358243;19;20034;-55
2022/12/02 00:33:05;;;;;;;0.10;0.10;;;;;;;10.17;69.09;101992.28;7362034;19;20577;-56
2022/12/02 00:35:30;;;;;;;0.00;0.00;;;;;;;10.19;69.18;101986.22;7361140;19;20044;-56
2022/12/02 00:37:55;;;;;;;0.03;0.03;;;;;;;10.23;68.91;101993.16;7363422;19;20019;-55
2022/12/02 00:40:21;;;;;;;0.00;0.00;;;;;;;10.24;69.21;101988.81;7358664;19;20021;-55
2022/12/02 00:42:46;;;;;;;0.00;0.00;;;;;;;10.23;68.92;101981.84;7361437;19;20010;-55
2022/12/02 00:47:56;;;;;;;0.00;0.00;;;;;;;10.30;68.76;101994.94;7360081;19;20633;-55
2022/12/02 00:50:22;;;;;;;0.00;0.00;;;;;;;10.30;68.91;101988.84;7364116;19;20003;-56
2022/12/02 00:52:48;;;;;;;0.00;0.00;;;;;;;10.33;68.79;101994.03;7361898;19;20052;-55
2022/12/02 00:55:13;;;;;;;0.00;0.00;;;;;;;10.27;68.97;101978.38;7363047;19;20006;-56
2022/12/02 00:57:39;;;;;;;0.00;0.00;;;;;;;10.35;68.96;101987.09;7362548;19;20010;-56
2022/12/02 01:00:06;;;;;;;0.00;0.00;;;;;;;10.18;69.23;101963.56;7360885;19;20018;-56
2022/12/02 01:02:31;;;;;;;0.00;0.00;;;;;;;10.32;68.73;101982.72;7362355;19;20014;-57
2022/12/02 01:04:56;;;;;;;0.00;0.00;;;;;;;10.32;68.87;101981.88;7361185;19;20027;-55
2022/12/02 01:07:22;;;;;;;0.10;0.10;;;;;;;10.30;68.82;101983.63;7361744;19;20773;-55
2022/12/02 01:09:47;;;;;;;0.00;0.00;;;;;;;10.24;68.83;101973.16;7358380;19;20014;-57
2022/12/02 01:12:13;;;;;;;0.00;0.00;;;;;;;10.24;69.00;101978.38;7361115;19;20002;-57
2022/12/02 01:14:38;;;;;;;0.00;0.00;;;;;;;10.19;69.24;101972.25;7362541;19;20093;-55
2022/12/02 01:17:04;;;;;;;0.00;0.00;;;;;;;10.20;69.22;101981.84;7358726;19;20101;-56
2022/12/02 01:19:29;;;;;;;0.00;0.00;;;;;;;10.17;69.44;101976.63;7361198;19;20014;-56
2022/12/02 01:21:55;;;;;;;0.00;0.00;;;;;;;10.03;69.26;101950.53;7362683;19;20003;-55
2022/12/02 01:24:20;;;;;;;0.10;0.10;;;;;;;10.10;69.50;101965.31;7361417;19;20012;-56
2022/12/02 01:26:45;;;;;;;0.00;0.00;;;;;;;10.12;69.36;101968.78;7362911;19;20043;-55
2022/12/02 01:29:11;;;;;;;0.10;0.10;;;;;;;10.11;69.56;101967.94;7361920;19;20368;-55
2022/12/02 01:31:36;;;;;;;0.10;0.10;;;;;;;10.10;69.26;101957.50;7361453;19;20015;-55
2022/12/02 01:34:02;;;;;;;0.00;0.00;;;;;;;10.11;69.24;101960.09;7361847;19;20010;-55
2022/12/02 01:36:27;;;;;;;0.00;0.00;;;;;;;10.14;69.63;101974.91;7362018;19;20019;-56
2022/12/02 01:38:53;;;;;;;0.10;0.10;;;;;;;10.14;69.75;101962.72;7359875;19;20565;-55
2022/12/02 01:41:18;;;;;;;0.00;0.00;;;;;;;10.15;69.40;101963.59;7361835;19;21386;-57
2022/12/02 01:43:44;;;;;;;0.00;0.00;;;;;;;10.10;69.34;101955.75;7358394;19;20027;-55
2022/12/02 01:46:10;;;;;;;0.00;0.00;;;;;;;10.16;69.78;101964.44;7362010;19;20011;-55
2022/12/02 01:48:36;;;;;;;0.00;0.00;;;;;;;10.05;69.89;101946.19;7362794;19;20014;-57
2022/12/02 01:51:03;;;;;;;0.00;0.00;;;;;;;10.17;69.79;101956.59;7360170;19;23717;-56
2022/12/02 01:53:29;;;;;;;0.00;0.00;;;;;;;10.18;69.68;101965.31;7361938;19;20358;-57
2022/12/02 01:55:55;;;;;;;0.00;0.00;;;;;;;10.16;69.49;101959.22;7361999;19;20010;-56
2022/12/02 01:58:26;;;;;;;0.08;0.08;;;;;;;10.20;69.53;101953.16;7360381;19;20026;-55
2022/12/02 02:00:56;;;;;;;0.10;0.10;;;;;;;10.19;69.46;101954.88;7359732;19;20010;-57
2022/12/02 02:03:22;;;;;;;0.00;0.00;;;;;;;10.16;69.79;101949.66;7360985;19;20014;-56
2022/12/02 02:05:47;;;;;;;0.00;0.00;;;;;;;10.07;69.69;101937.47;7361519;19;20049;-55
2022/12/02 02:08:13;;;;;;;0.10;0.10;;;;;;;10.20;69.75;101955.75;7356832;19;20021;-57
2022/12/02 02:10:41;;;;;;;0.00;0.00;;;;;;;10.07;69.74;101928.78;7360859;19;20025;-57
2022/12/02 02:13:07;;;;;;;;;;;;;;;10.26;69.20;101950.56;7362233;19;20680;-57
2022/12/02 02:15:34;;;;;;;0.00;0.00;;;;;;;10.12;69.43;101938.34;7362220;19;19915;-57
2022/12/02 02:17:59;;;;;;;0.10;0.10;;;;;;;10.23;69.48;101960.94;7359954;19;20722;-57
2022/12/02 02:20:25;;;;;;;0.00;0.00;;;;;;;10.17;69.39;101935.72;7357795;19;20007;-56
2022/12/02 02:23:03;;;;;;;0.00;0.00;;;;;;;10.25;69.30;101943.59;7361000;19;20041;-55
2022/12/02 02:25:29;;;;;;;0.00;0.00;;;;;;;10.08;69.62;101926.16;7361105;19;20457;-56
2022/12/02 02:27:57;;;;;;;0.00;0.00;;;;;;;10.21;69.87;101957.50;7360599;19;20194;-57
2022/12/02 02:30:23;;;;;;;0.10;0.10;;;;;;;10.20;69.27;101955.75;7358229;19;20933;-57
2022/12/02 02:32:50;;;;;;;0.00;0.00;;;;;;;10.20;69.47;101948.78;7360843;19;20038;-57
2022/12/02 02:35:18;;;;;;;0.10;0.10;;;;;;;10.18;69.19;101942.69;7360673;19;20006;-56
2022/12/02 02:37:44;;;;;;;0.00;0.00;;;;;;;10.23;69.11;101945.28;7356830;19;20006;-57
2022/12/02 02:40:14;;;;;;;0.00;0.00;;;;;;;10.13;69.20;101934.84;7358739;19;20030;-54
2022/12/02 02:42:42;;;;;;;0.00;0.00;;;;;;;10.25;69.24;101949.69;7359285;19;20449;-57
2022/12/02 02:45:08;;;;;;;0.00;0.00;;;;;;;10.27;68.71;101944.44;7358895;19;20014;-56
2022/12/02 02:47:33;;;;;;;0.03;0.03;;;;;;;10.12;68.85;101920.06;7361102;19;20002;-56
2022/12/02 02:49:59;;;;;;;0.00;0.00;;;;;;;10.29;68.76;101940.09;7360035;19;20018;-57
2022/12/02 02:52:24;;;;;;;0.00;0.00;;;;;;;10.25;68.90;101933.16;7359646;19;20047;-56
2022/12/02 02:54:49;;;;;;;0.00;0.00;;;;;;;10.19;68.61;101917.44;7357059;19;20015;-56
2022/12/02 02:57:15;;;;;;;0.00;0.00;;;;;;;10.30;68.50;101939.25;7360482;19;20010;-57
2022/12/02 02:59:42;;;;;;;0.00;0.00;;;;;;;10.33;69.04;101942.69;7349390;19;20010;-55
2022/12/02 03:02:11;;;;;;;0.10;0.10;;;;;;;10.34;68.75;101938.34;7358819;19;20096;-56
2022/12/02 03:04:37;;;;;;;0.00;0.00;;;;;;;10.32;68.74;101934.88;7357774;19;20103;-53
2022/12/02 03:07:03;;;;;;;0.08;0.08;;;;;;;10.32;68.99;101934.88;7358032;19;20047;-57
2022/12/02 03:09:29;;;;;;;0.00;0.00;;;;;;;10.36;68.62;101937.47;7355439;19;20012;-54
2022/12/02 03:11:57;;;;;;;0.00;0.00;;;;;;;10.36;68.38;101931.38;7357787;19;20018;-56
2022/12/02 03:14:23;;;;;;;0.08;0.08;;;;;;;10.37;68.36;101936.59;7357102;19;20014;-56
2022/12/02 03:16:49;;;;;;;0.03;0.03;;;;;;;10.38;68.46;101940.06;7357385;19;20011;-56
2022/12/02 03:19:15;;;;;;;0.10;0.10;;;;;;;10.27;68.71;101921.81;7358012;19;20752;-55
2022/12/02 03:21:41;;;;;;;0.00;0.00;;;;;;;10.33;68.73;101920.94;7355804;19;20366;-56
2022/12/02 03:24:07;;;;;;;0.00;0.00;;;;;;;10.38;68.86;101934.84;7357312;19;20013;-56
2022/12/02 03:26:33;;;;;;;0.10;0.10;;;;;;;10.38;69.01;101934.84;7356766;19;21858;-57
2022/12/02 03:29:00;;;;;;;0.10;0.10;;;;;;;10.38;68.96;101940.06;7356137;19;20473;-57
2022/12/02 03:31:27;;;;;;;0.10;0.10;;;;;;;10.31;68.83;101922.69;7351662;19;20026;-55
2022/12/02 03:33:53;;;;;;;0.00;0.00;;;;;;;10.36;68.86;101931.38;7355389;19;20452;-56
2022/12/02 03:36:19;;;;;;;0.00;0.00;;;;;;;10.34;68.99;101920.06;7357063;19;20125;-56
2022/12/02 03:38:45;;;;;;;0.00;0.00;;;;;;;10.34;68.85;101920.06;7350959;19;20011;-54
2022/12/02 03:41:11;;;;;;;0.10;0.10;;;;;;;10.31;68.68;101915.72;7361127;19;20011;-55
2022/12/02 03:43:37;;;;;;;0.05;0.05;;;;;;;9.82;68.86;101834.00;7357770;19;20517;-55
2022/12/02 03:46:04;;;;;;;0.10;0.10;;;;;;;10.35;68.68;101919.22;7359520;19;20082;-56
2022/12/02 03:48:30;;;;;;;0.00;0.00;;;;;;;10.21;69.12;101894.84;7359395;19;20010;-54
2022/12/02 03:50:56;;;;;;;0.00;0.00;;;;;;;10.20;69.19;101906.16;7359550;19;20014;-53
2022/12/02 03:53:22;;;;;;;0.00;0.00;;;;;;;10.29;68.87;101919.19;7357489;19;20040;-56
2022/12/02 03:55:48;;;;;;;0.08;0.08;;;;;;;10.17;68.94;101908.75;7359163;19;20078;-56
2022/12/02 03:58:14;;;;;;;0.10;0.10;;;;;;;10.21;69.03;101911.38;7357676;19;20102;-53
2022/12/02 04:00:39;;;;;;;0.00;0.00;;;;;;;10.18;69.01;101910.50;7355610;19;20795;-57
2022/12/02 04:03:05;;;;;;;0.10;0.10;;;;;;;10.16;69.49;101913.13;7355166;19;20039;-56
2022/12/02 04:05:31;;;;;;;0.03;0.03;;;;;;;9.78;69.53;101850.53;7347259;19;20371;-56
2022/12/02 04:07:56;;;;;;;0.00;0.00;;;;;;;10.14;69.36;101925.31;7359569;19;20044;-55
2022/12/02 04:10:22;;;;;;;0.00;0.00;;;;;;;10.11;69.49;101920.94;7366509;19;20027;-54
2022/12/02 04:12:47;;;;;;;0.10;0.10;;;;;;;10.08;69.55;101917.47;7366106;19;20697;-57
2022/12/02 04:15:13;;;;;;;0.00;0.00;;;;;;;10.03;69.26;101916.59;7365247;19;20003;-57
2022/12/02 04:17:38;;;;;;;0.10;0.10;;;;;;;10.02;69.66;101914.88;7366621;19;20035;-53
2022/12/02 04:20:05;;;;;;;0.00;0.00;;;;;;;9.90;69.67;101896.63;7345373;19;20007;-56
2022/12/02 04:22:31;;;;;;;0.00;0.00;;;;;;;9.84;69.63;101894.88;7359145;19;20097;-55
2022/12/02 04:24:58;;;;;;;0.00;0.00;;;;;;;9.92;69.70;101919.22;7356788;19;20013;-55
2022/12/02 04:27:24;;;;;;;0.00;0.00;;;;;;;9.83;69.97;101907.06;7359351;19;20027;-55
2022/12/02 04:29:50;;;;;;;0.00;0.00;;;;;;;9.59;69.60;101867.94;7357388;19;20578;-56
2022/12/02 04:32:15;;;;;;;0.00;0.00;;;;;;;9.78;69.56;101905.31;7358662;19;20090;-56
2022/12/02 04:34:40;;;;;;;0.00;0.00;;;;;;;9.70;69.72;101901.84;7357213;19;20515;-57
2022/12/02 04:37:06;;;;;;;0.00;0.00;;;;;;;9.74;69.90;101919.25;7357274;19;20026;-54
2022/12/02 04:39:31;;;;;;;0.10;0.10;;;;;;;9.69;69.50;101910.53;7360305;19;20002;-55
2022/12/02 04:41:57;;;;;;;0.00;0.00;;;;;;;9.67;70.02;101913.13;7358604;19;20043;-50
2022/12/02 04:44:22;;;;;;;0.00;0.00;;;;;;;9.64;69.84;101912.28;7357740;19;20031;-57
2022/12/02 04:46:47;;;;;;;0.00;0.00;;;;;;;9.60;69.96;101912.25;7360332;19;20706;-55
2022/12/02 04:49:13;;;;;;;0.00;0.00;;;;;;;9.58;70.03;101921.84;7355582;19;20023;-57
2022/12/02 04:51:38;;;;;;;0.05;0.05;;;;;;;9.53;69.80;101913.16;7359833;19;20022;-55
2022/12/02 04:54:03;;;;;;;0.00;0.00;;;;;;;9.48;70.07;101913.97;7354083;19;20851;-56
2022/12/02 04:56:29;;;;;;;0.00;0.00;;;;;;;9.47;70.16;101915.72;7360507;19;20014;-55
2022/12/02 04:58:54;;;;;;;0.00;0.00;;;;;;;9.45;70.19;101921.81;7359029;19;20014;-57
2022/12/02 05:01:20;;;;;;;0.00;0.00;;;;;;;9.41;70.15;101912.25;7356974;19;20883;-54
2022/12/02 05:03:45;;;;;;;0.00;0.00;;;;;;;9.38;69.82;101914.84;7357243;19;20035;-57
2022/12/02 05:06:10;;;;;;;0.03;0.03;;;;;;;9.24;70.11;101891.38;7357035;19;20048;-56
2022/12/02 05:08:36;;;;;;;0.05;0.05;;;;;;;9.32;70.27;101910.47;7356825;19;20794;-54
2022/12/02 05:11:01;;;;;;;0.00;0.00;;;;;;;9.27;70.15;101912.22;7354172;19;20018;-56
2022/12/02 05:13:27;;;;;;;0.00;0.00;;;;;;;9.26;69.97;101910.47;7357972;19;20011;-55
2022/12/02 05:15:52;;;;;;;0.00;0.00;;;;;;;9.19;69.87;101906.13;7357017;19;20657;-57
2022/12/02 05:18:17;;;;;;;0.00;0.00;;;;;;;9.19;70.17;101913.94;7356040;19;20017;-57
2022/12/02 05:20:43;;;;;;;0.00;0.00;;;;;;;9.18;69.87;101918.28;7356348;19;20024;-55
2022/12/02 05:23:08;;;;;;;0.00;0.00;;;;;;;9.14;70.04;101920.88;7355694;19;20038;-57
2022/12/02 05:25:34;;;;;;;0.00;0.00;;;;;;;9.05;69.98;101917.38;7357211;19;20014;-56
2022/12/02 05:27:59;;;;;;;0.00;0.00;;;;;;;9.09;70.28;101916.53;7358210;19;20017;-57
2022/12/02 05:30:24;;;;;;;0.05;0.05;;;;;;;9.06;70.08;101924.31;7354540;19;20077;-57
2022/12/02 05:32:51;;;;;;;0.10;0.10;;;;;;;9.01;70.19;101920.81;7359058;19;20018;-56
2022/12/02 05:35:16;;;;;;;0.00;0.00;;;;;;;9.02;70.05;101921.69;7352335;19;20086;-56
2022/12/02 05:37:42;;;;;;;0.00;0.00;;;;;;;8.93;70.17;101925.16;7357494;19;21045;-55
2022/12/02 05:40:09;;;;;;;0.00;0.00;;;;;;;8.94;70.30;101929.50;7355977;19;20014;-55
2022/12/02 05:42:34;;;;;;;0.00;0.00;;;;;;;8.93;70.44;101927.75;7357092;19;20010;-54
2022/12/02 05:45:05;;;;;;;0.00;0.00;;;;;;;8.93;70.14;101929.50;7352940;19;20020;-57
2022/12/02 05:47:31;;;;;;;0.00;0.00;;;;;;;8.87;70.28;101925.16;7356020;19;20090;-56
2022/12/02 05:49:58;;;;;;;0.00;0.00;;;;;;;8.84;70.10;101938.13;7355728;19;20390;-55
2022/12/02 05:52:26;;;;;;;0.05;0.05;;;;;;;8.86;70.30;101938.13;7356789;19;20792;-57
2022/12/02 05:54:54;;;;;;;0.00;0.00;;;;;;;8.83;70.57;101931.19;7355708;19;20014;-56
2022/12/02 05:57:23;;;;;;;0.05;0.05;;;;;;;8.81;70.35;101938.13;7356271;19;20007;-54
2022/12/02 05:59:50;;;;;;;0.00;0.00;;;;;;;8.73;70.65;101929.41;7356786;19;20014;-56
2022/12/02 06:02:49;;;;;;;0.10;0.10;;;;;;;8.71;70.31;101920.72;7354857;19;20033;-53
2022/12/02 06:05:30;;;;;;;0.03;0.03;;;;;;;8.78;70.22;101943.34;7253593;19;2004181;-56
2022/12/02 06:08:13;;;;;;;0.10;0.10;;;;;;;8.75;70.27;101938.09;7357365;19;20014;-57
2022/12/02 06:10:42;;;;;;;0.10;0.10;;;;;;;8.63;70.44;101927.63;7354933;19;20018;-56
2022/12/02 06:13:36;;;;;;;0.00;0.00;;;;;;;8.64;70.39;101931.97;7355377;19;20472;-57
2022/12/02 06:16:06;;;;;;;0.03;0.03;;;;;;;8.69;70.64;101948.50;7253308;19;2004325;-56
2022/12/02 06:18:34;;;;;;;0.00;0.00;;;;;;;8.66;70.42;101949.31;7355796;19;20011;-56
2022/12/02 06:21:03;;;;;;;0.10;0.10;;;;;;;8.63;70.45;101948.47;7354985;19;20011;-55
2022/12/02 06:23:31;;;;;;;0.00;0.00;;;;;;;8.62;70.43;101951.91;7354975;19;20007;-56
2022/12/02 06:25:58;;;;;;;0.00;0.00;;;;;;;8.59;70.43;101955.38;7356267;19;20010;-57
2022/12/02 06:28:37;;;;;;;0.10;0.10;;;;;;;8.58;70.15;101945.84;7352925;19;20995;-55
2022/12/02 06:31:19;;;;;;;0.05;0.05;;;;;;;8.55;70.52;101957.09;7352610;19;20014;-56
2022/12/02 06:33:49;;;;;;;0.00;0.00;;;;;;;8.53;70.24;101958.81;7356327;19;20010;-57
2022/12/02 06:36:22;;;;;;;0.00;0.00;;;;;;;8.53;70.32;101961.41;7354920;19;20010;-54
2022/12/02 06:38:49;;;;;;;0.00;0.00;;;;;;;8.47;70.24;101964.00;7356101;19;20027;-56
2022/12/02 06:41:20;;;;;;;0.00;0.00;;;;;;;8.47;70.30;101958.78;7352993;19;20745;-55
2022/12/02 06:45:03;;;;;;;0.00;0.00;;;;;;;8.03;70.46;101894.28;7356167;19;20233;-56
2022/12/02 06:46:34;;;;;;;0.10;0.10;;;;;;;8.37;70.13;101949.19;7353471;19;20019;-56
2022/12/02 06:49:11;;;;;;;0.10;0.10;;;;;;;8.30;70.63;101952.56;7353471;19;20029;-55
2022/12/02 06:51:37;;;;;;;0.00;0.00;;;;;;;8.22;70.31;101939.50;7352045;19;20018;-53
2022/12/02 06:54:12;;;;;;;0.00;0.00;;;;;;;8.24;70.09;101942.09;7355210;19;22175;-57
2022/12/02 06:56:37;;;;;;;0.08;0.08;;;;;;;8.17;70.20;101940.34;7354949;19;20015;-55
2022/12/02 06:59:04;;;;;;;0.00;0.00;;;;;;;8.28;70.01;101959.50;7348539;19;20505;-56
2022/12/02 07:01:37;;;;;;;0.00;0.00;;;;;;;8.27;70.05;101965.56;7361704;19;20035;-56
2022/12/02 07:04:08;;;;;;;0.00;0.00;;;;;;;8.21;70.54;101961.19;7360777;19;20014;-56
2022/12/02 07:06:38;;;;;;;0.10;0.10;;;;;;;8.21;70.13;101966.41;7360640;19;20026;-55
2022/12/02 07:09:19;;;;;;;0.00;0.00;;;;;;;8.15;70.20;101960.25;7359951;19;20030;-56
2022/12/02 07:11:51;;;;;;;0.00;0.00;;;;;;;8.16;70.50;101973.28;7357541;19;20023;-54
2022/12/02 07:14:36;;;;;;;0.00;0.00;;;;;;;8.14;70.11;101979.34;7360230;19;20014;-57
2022/12/02 07:17:05;;;;;;;0.00;0.00;;;;;;;8.04;70.28;101976.66;7362167;19;21348;-56
2022/12/02 07:19:43;;;;;;;0.00;0.00;;;;;;;8.05;70.10;101975.78;7359621;19;20010;-56
2022/12/02 07:22:18;;;;;;;;;;;;;;;8.05;69.79;101991.41;7359911;19;20053;-56
2022/12/02 07:25:06;;;;;;;0.00;0.00;;;;;;;7.95;69.87;101973.97;7359093;19;20402;-56
2022/12/02 07:27:35;;;;;;;0.00;0.00;;;;;;;7.92;70.16;101979.16;7355900;19;20010;-56
2022/12/02 07:30:01;;;;;;;0.00;0.00;;;;;;;7.85;70.36;101974.75;7357863;19;20031;-57
2022/12/02 07:32:26;;;;;;;0.00;0.00;;;;;;;7.83;70.80;101978.22;7360027;19;20011;-54
2022/12/02 07:34:52;;;;;;;0.00;0.00;;;;;;;7.73;70.69;101977.25;7356691;19;20009;-55
2022/12/02 07:37:18;;;;;;;0.00;0.00;;;;;;;7.67;70.54;101974.59;7358344;19;20010;-57
2022/12/02 07:39:44;;;;;;;0.00;0.00;;;;;;;7.70;70.65;101982.41;7356359;19;20733;-57
2022/12/02 07:42:09;;;;;;;0.00;0.00;;;;;;;7.39;70.91;101937.91;7354807;19;20002;-56
2022/12/02 07:44:34;;;;;;;0.00;0.00;;;;;;;7.62;70.96;101976.28;7363715;19;20029;-55
2022/12/02 07:47:00;;;;;;;0.05;0.05;;;;;;;7.74;70.61;102004.97;7365136;19;20766;-56
2022/12/02 07:49:26;;;;;;;0.00;0.00;;;;;;;7.69;70.37;102001.47;7363994;19;20006;-54
2022/12/02 07:51:51;;;;;;;0.00;0.00;;;;;;;7.69;70.37;102006.66;7364735;19;21140;-55
2022/12/02 07:54:17;;;;;;;0.00;0.00;;;;;;;7.58;70.50;101990.97;7362316;19;20018;-54
2022/12/02 07:56:43;;;;;;;0.00;0.00;;;;;;;7.66;70.82;102011.84;7350939;19;20011;-53
2022/12/02 07:59:09;;;;;;;0.10;0.10;;;;;;;7.57;70.40;102001.34;7362114;19;20082;-54
2022/12/02 08:01:34;;;;;;;0.00;0.00;;;;;;;7.47;70.75;101993.44;7362918;19;20118;-55
2022/12/02 08:04:00;;;;;;;0.00;0.00;;;;;;;7.51;70.51;102008.22;7352411;19;20010;-56
2022/12/02 08:06:25;;;;;;;0.08;0.08;;;;;;;7.58;70.80;102008.28;7368404;19;20008;-55
2022/12/02 08:08:51;;;;;;;0.10;0.10;;;;;;;7.42;70.73;101986.47;7366280;19;20022;-54
2022/12/02 08:11:16;;;;;;;0.00;0.00;;;;;;;7.53;70.41;102003.91;7365168;19;20011;-56
2022/12/02 08:13:41;;;;;;;0.00;0.00;;;;;;;7.40;70.73;101990.75;7363968;19;20013;-53
2022/12/02 08:16:07;;;;;;;0.00;0.00;;;;;;;7.36;70.80;101991.59;7362829;19;20014;-55
2022/12/02 08:18:33;;;;;;;0.08;0.08;;;;;;;7.32;70.76;101990.69;7361260;19;20014;-53
2022/12/02 08:20:59;;;;;;;0.00;0.00;;;;;;;7.47;70.56;102013.38;7363207;19;20014;-53
2022/12/02 08:23:24;;;;;;;0.00;0.00;;;;;;;7.32;70.74;101993.28;7366686;19;20010;-54
2022/12/02 08:25:49;;;;;;;0.00;0.00;;;;;;;7.46;70.76;102025.50;7366908;19;20046;-53
2022/12/02 08:28:15;;;;;;;0.00;0.00;;;;;;;7.44;70.79;102027.19;7366201;19;20018;-52
2022/12/02 08:30:40;;;;;;;0.10;0.10;;;;;;;7.45;70.84;102028.06;7366435;19;20017;-52
2022/12/02 08:33:06;;;;;;;0.08;0.08;;;;;;;7.42;70.62;102018.53;7361622;19;20022;-53
2022/12/02 08:35:31;;;;;;;0.00;0.00;;;;;;;7.34;70.68;102008.88;7364527;19;20014;-55
2022/12/02 08:37:57;;;;;;;0.00;0.00;;;;;;;7.42;71.09;102023.72;7350398;19;20010;-55
2022/12/02 08:40:22;;;;;;;0.00;0.00;;;;;;;7.17;70.95;101985.31;7356493;19;20593;-55
2022/12/02 08:42:47;;;;;;;0.00;0.00;;;;;;;7.38;70.82;102024.53;7365468;19;20018;-54
2022/12/02 08:45:13;;;;;;;0.00;0.00;;;;;;;7.46;70.71;102038.50;7364132;19;20010;-54
2022/12/02 08:47:39;;;;;;;0.00;0.00;;;;;;;7.32;71.07;102010.59;7363872;19;20422;-54
2022/12/02 08:50:05;;;;;;;0.00;0.00;;;;;;;7.47;70.83;102040.22;7363827;19;20014;-54
2022/12/02 08:52:30;;;;;;;0.00;0.00;;;;;;;7.32;70.90;102011.47;7364914;19;20011;-54
2022/12/02 08:54:57;;;;;;;0.00;0.00;;;;;;;7.52;71.05;102040.28;7360347;19;20029;-54
2022/12/02 08:57:23;;;;;;;0.10;0.10;;;;;;;7.53;71.14;102040.31;7362214;19;20065;-54
2022/12/02 08:59:48;;;;;;;0.10;0.10;;;;;;;7.54;71.10;102036.84;7359051;19;20014;-55
2022/12/02 09:02:14;;;;;;;0.10;0.10;;;;;;;7.59;70.82;102046.41;7363643;19;20010;-55
2022/12/02 09:04:39;;;;;;;0.00;0.00;;;;;;;7.48;70.98;102025.50;7362193;19;20014;-53
2022/12/02 09:07:05;;;;;;;0.00;0.00;;;;;;;7.61;71.01;102044.72;7362210;19;20094;-51
2022/12/02 09:09:30;;;;;;;0.10;0.10;;;;;;;7.66;71.00;102050.84;7363327;19;20018;-54
2022/12/02 09:11:55;;;;;;;0.00;0.00;;;;;;;7.67;71.02;102055.19;7358885;19;20066;-54
2022/12/02 09:14:21;;;;;;;0.10;0.10;;;;;;;7.71;71.23;102063.03;7353780;19;20497;-54
2022/12/02 09:16:47;;;;;;;0.10;0.10;;;;;;;7.73;71.14;102050.91;7339264;19;20010;-55
2022/12/02 09:19:13;;;;;;;0.00;0.00;;;;;;;7.78;71.02;102061.38;7347425;19;20003;-55
2022/12/02 09:21:38;;;;;;;0.10;0.10;;;;;;;7.82;71.25;102065.75;7360755;19;20010;-54
2022/12/02 09:24:04;;;;;;;0.05;0.05;;;;;;;7.86;71.24;102070.13;7361289;19;20015;-51
2022/12/02 09:26:30;;;;;;;0.00;0.00;;;;;;;7.90;71.37;102069.28;7362907;19;20006;-54
2022/12/02 09:28:55;;;;;;;0.10;0.10;;;;;;;7.96;71.40;102069.38;7359653;19;20010;-55
2022/12/02 09:31:21;;;;;;;0.00;0.00;;;;;;;7.99;71.12;102066.78;7361078;19;20010;-54
2022/12/02 09:33:46;;;;;;;0.00;0.00;;;;;;;8.09;70.93;102074.69;7359811;19;20022;-56
2022/12/02 09:36:11;;;;;;;0.00;0.00;;;;;;;8.15;70.95;102069.53;7360623;19;20038;-53
2022/12/02 09:38:37;;;;;;;0.00;0.00;;;;;;;8.22;71.19;102071.34;7358366;19;20090;-51
2022/12/02 09:41:03;;;;;;;0.00;0.00;;;;;;;8.19;71.18;102063.50;7361821;19;20013;-55
2022/12/02 09:43:29;;;;;;;0.00;0.00;;;;;;;8.38;71.03;102073.25;7356240;19;20030;-55
2022/12/02 09:45:55;;;;;;;0.10;0.10;;;;;;;8.40;71.31;102055.91;7353419;19;20014;-54
2022/12/02 09:48:21;;;;;;;0.00;0.00;;;;;;;8.53;70.76;102062.09;7350943;19;20014;-55
2022/12/02 09:50:47;;;;;;;0.00;0.00;;;;;;;8.70;70.87;102072.63;7356970;19;20073;-56
2022/12/02 09:53:14;;;;;;;0.00;0.00;;;;;;;8.86;70.99;102071.84;7353088;19;20006;-53
2022/12/02 09:55:40;;;;;;;0.00;0.00;;;;;;;8.99;70.93;102068.47;7359790;19;20109;-55
2022/12/02 09:58:15;;;;;;;0.10;0.10;;;;;;;9.21;70.82;102076.41;7354203;19;20622;-56
2022/12/02 10:00:40;;;;;;;0.00;0.00;;;;;;;9.34;70.41;102079.06;7339285;19;20117;-53
2022/12/02 10:03:07;;;;;;;0.00;0.00;;;;;;;9.46;70.14;102064.34;7354778;19;20744;-56
2022/12/02 10:05:33;;;;;;;0.00;0.00;;;;;;;9.65;69.69;102075.72;7353422;19;20872;-54
2022/12/02 10:07:59;;;;;;;0.00;0.00;;;;;;;9.79;69.25;102079.25;7355277;19;20656;-57
2022/12/02 10:10:28;;;;;;;0.10;0.10;;;;;;;9.93;69.16;102082.72;7352775;19;20775;-55
2022/12/02 10:12:54;;;;;;;0.00;0.00;;;;;;;9.90;68.96;102067.09;7346468;19;20046;-56
2022/12/02 10:15:26;;;;;;;0.10;0.10;;;;;;;10.08;69.18;102087.97;7347610;19;20094;-54
2022/12/02 10:17:52;;;;;;;0.00;0.00;;;;;;;10.12;69.03;102083.63;7350172;19;20030;-54
2022/12/02 10:20:26;;;;;;;0.10;0.10;;;;;;;10.20;69.02;102087.16;7346600;19;20403;-52
2022/12/02 10:23:10;;;;;;;0.00;0.00;;;;;;;10.30;69.16;102088.06;7353463;19;20018;-55
2022/12/02 10:25:37;;;;;;;0.08;0.08;;;;;;;10.34;69.18;102097.59;7352077;19;20010;-55
2022/12/02 10:28:04;;;;;;;0.00;0.00;;;;;;;10.30;68.90;102072.41;7350663;19;20801;-54
2022/12/02 10:30:30;;;;;;;0.00;0.00;;;;;;;10.52;68.94;102100.25;7351447;19;20010;-55
2022/12/02 10:33:04;;;;;;;0.00;0.00;;;;;;;10.69;69.43;102102.84;7357747;19;20029;-52
2022/12/02 10:35:50;;;;;;;0.00;0.00;;;;;;;10.87;69.36;102099.34;7356084;19;20046;-55
2022/12/02 10:38:29;;;;;;;0.00;0.00;;;;;;;11.07;69.51;102091.47;7358012;19;20018;-52
2022/12/02 10:41:13;;;;;;;0.00;0.00;;;;;;;11.33;69.09;102101.84;7354741;19;20034;-55
2022/12/02 10:44:00;;;;;;;0.00;0.00;;;;;;;11.51;68.02;102088.72;7351423;19;20066;-49
2022/12/02 10:46:26;;;;;;;0.00;0.00;;;;;;;11.76;67.74;102093.78;7358741;19;20010;-55
2022/12/02 10:48:51;;;;;;;0.10;0.10;;;;;;;11.99;67.52;102094.56;7351088;19;20465;-53
2022/12/02 10:51:19;;;;;;;0.00;0.00;;;;;;;12.20;67.30;102097.03;7349982;19;20014;-57
2022/12/02 10:53:50;;;;;;;0.00;0.00;;;;;;;12.35;66.73;102096.06;7348095;19;20051;-56
2022/12/02 10:56:24;;;;;;;0.10;0.10;;;;;;;12.53;66.82;102097.69;7347065;19;20580;-54
2022/12/02 10:58:50;;;;;;;0.10;0.10;;;;;;;12.50;66.50;102081.97;7346497;19;20029;-57
2022/12/02 11:01:19;;;;;;;0.00;0.00;;;;;;;12.81;66.78;102102.66;7352622;19;20093;-56
2022/12/02 11:03:45;;;;;;;0.00;0.00;;;;;;;12.99;66.55;102097.25;7347823;19;20037;-55
2022/12/02 11:06:14;;;;;;;0.10;0.10;;;;;;;13.28;66.32;102093.44;7351659;19;20010;-56
2022/12/02 11:08:41;;;;;;;0.10;0.10;;;;;;;13.53;65.70;102092.25;7336983;19;20074;-55
2022/12/02 11:11:10;;;;;;;0.10;0.10;;;;;;;13.86;65.45;102095.34;7336214;19;20118;-57
2022/12/02 11:13:44;;;;;;;0.10;0.10;;;;;;;14.30;65.89;102094.69;7353435;19;20018;-56
2022/12/02 11:16:27;;;;;;;0.10;0.10;;;;;;;14.74;66.44;102091.31;7354900;19;20892;-56
2022/12/02 11:19:37;;;;;;;0.10;0.10;;;;;;;15.22;66.09;102098.34;7361184;19;20775;-57
2022/12/02 11:22:03;;;;;;;0.10;0.10;;;;;;;15.49;63.17;102091.66;7253319;19;2004340;-56
2022/12/02 11:24:29;;;;;;;0.10;0.10;;;;;;;15.83;62.02;102091.81;7360430;19;20017;-56
2022/12/02 11:27:03;;;;;;;0.10;0.10;;;;;;;16.25;63.12;102086.47;7358908;19;20018;-55
2022/12/02 11:29:31;;;;;;;0.10;0.10;;;;;;;16.47;61.21;102082.38;7363149;19;20011;-55
2022/12/02 11:32:20;;;;;;;0.10;0.10;;;;;;;16.73;62.62;102071.22;7359580;19;20014;-57
2022/12/02 11:34:54;;;;;;;0.10;0.10;;;;;;;16.98;61.44;102081.06;7355184;19;20022;-56